createdAt,value
2022-12-26T00:01:20.422Z,9.44
2022-12-26T00:03:23.297Z,9.48
2022-12-26T00:05:27.355Z,9.48
2022-12-26T00:07:29.952Z,9.66
2022-12-26T00:09:33.471Z,9.62
2022-12-26T00:11:36.720Z,9.52
2022-12-26T00:13:41.705Z,9.55
2022-12-26T00:15:44.681Z,9.48
2022-12-26T00:17:47.264Z,9.53
2022-12-26T00:19:49.923Z,9.44
2022-12-26T00:21:53.939Z,9.49
2022-12-26T00:23:58.044Z,9.42
2022-12-26T00:26:04.179Z,9.55
2022-12-26T00:28:06.821Z,9.50
2022-12-26T00:30:10.994Z,9.50
2022-12-26T00:32:13.611Z,9.33
2022-12-26T00:34:16.561Z,9.39
2022-12-26T00:36:21.631Z,9.38
2022-12-26T00:38:25.766Z,9.38
2022-12-26T00:40:28.416Z,9.49
2022-12-26T00:42:31.007Z,9.46
2022-12-26T00:44:33.621Z,9.50
2022-12-26T00:46:36.461Z,9.47
2022-12-26T00:48:39.095Z,9.53
2022-12-26T00:50:41.871Z,9.50
2022-12-26T00:52:44.491Z,9.52
2022-12-26T00:54:49.089Z,9.57
2022-12-26T00:56:51.787Z,9.69
2022-12-26T00:58:54.451Z,9.60
2022-12-26T01:00:57.440Z,9.50
2022-12-26T01:03:00.235Z,9.54
2022-12-26T01:05:03.057Z,9.42
2022-12-26T01:07:05.740Z,9.57
2022-12-26T01:09:08.455Z,9.65
2022-12-26T01:11:14.335Z,9.53
2022-12-26T01:13:17.031Z,9.57
2022-12-26T01:15:20.589Z,9.51
2022-12-26T01:17:23.355Z,9.60
2022-12-26T01:19:26.074Z,9.74
2022-12-26T01:21:28.732Z,9.70
2022-12-26T01:23:31.439Z,9.72
2022-12-26T01:25:34.077Z,9.65
2022-12-26T01:27:38.125Z,9.76
2022-12-26T01:29:40.778Z,9.76
2022-12-26T01:31:43.719Z,9.85
2022-12-26T01:33:46.361Z,9.69
2022-12-26T01:35:53.853Z,9.70
2022-12-26T01:37:57.136Z,9.64
2022-12-26T01:39:59.756Z,9.64
2022-12-26T01:42:02.361Z,9.66
2022-12-26T01:44:27.836Z,9.74
2022-12-26T01:46:34.686Z,9.74
2022-12-26T01:48:37.383Z,9.81
2022-12-26T01:50:45.617Z,9.75
2022-12-26T01:52:49.747Z,9.85
2022-12-26T01:54:55.518Z,9.95
2022-12-26T01:56:59.342Z,9.90
2022-12-26T01:59:07.186Z,9.97
2022-12-26T02:01:12.185Z,9.99
2022-12-26T02:03:32.327Z,9.86
2022-12-26T02:05:34.904Z,9.89
2022-12-26T02:07:40.294Z,9.86
2022-12-26T02:09:43.495Z,9.86
2022-12-26T02:12:34.041Z,9.89
2022-12-26T02:14:13.400Z,9.90
2022-12-26T02:16:20.305Z,9.88
2022-12-26T02:18:22.995Z,9.87
2022-12-26T02:20:28.746Z,9.82
2022-12-26T02:23:20.860Z,9.79
2022-12-26T02:25:43.360Z,9.80
2022-12-26T02:28:25.023Z,9.79
2022-12-26T02:30:38.400Z,9.91
2022-12-26T02:33:00.283Z,9.79
2022-12-26T02:35:12.003Z,9.80
2022-12-26T02:37:27.835Z,9.77
2022-12-26T02:39:47.618Z,9.78
2022-12-26T02:42:02.459Z,9.78
2022-12-26T02:44:26.213Z,9.77
2022-12-26T02:46:54.020Z,9.72
2022-12-26T02:49:06.406Z,9.73
2022-12-26T02:51:53.379Z,9.76
2022-12-26T02:54:24.829Z,9.76
2022-12-26T02:56:49.186Z,9.92
2022-12-26T02:59:17.592Z,9.82
2022-12-26T03:01:45.568Z,9.99
2022-12-26T03:04:08.628Z,9.94
2022-12-26T03:06:34.147Z,9.90
2022-12-26T03:09:08.726Z,10.00
2022-12-26T03:11:29.162Z,9.97
2022-12-26T03:13:37.163Z,9.97
2022-12-26T03:16:03.482Z,9.92
2022-12-26T03:18:08.696Z,9.97
2022-12-26T03:20:16.378Z,9.95
2022-12-26T03:22:31.450Z,9.97
2022-12-26T03:24:59.904Z,9.93
2022-12-26T03:27:01.834Z,9.94
2022-12-26T03:29:19.317Z,9.95
2022-12-26T03:31:22.145Z,9.99
2022-12-26T03:33:44.594Z,10.13
2022-12-26T03:35:48.635Z,10.12
2022-12-26T03:37:56.293Z,10.09
2022-12-26T03:40:27.243Z,10.05
2022-12-26T03:42:55.044Z,10.08
2022-12-26T03:45:21.930Z,10.05
2022-12-26T03:47:48.093Z,10.08
2022-12-26T03:50:14.924Z,10.15
2022-12-26T03:52:43.223Z,10.15
2022-12-26T03:55:12.470Z,10.08
2022-12-26T03:57:37.552Z,10.07
2022-12-26T04:00:12.500Z,10.06
2022-12-26T04:02:35.405Z,10.11
2022-12-26T04:05:08.472Z,10.07
2022-12-26T04:07:28.987Z,10.05
2022-12-26T04:09:55.227Z,9.97
2022-12-26T04:12:18.041Z,9.95
2022-12-26T04:14:52.684Z,10.08
2022-12-26T04:17:18.119Z,10.02
2022-12-26T04:19:37.412Z,10.10
2022-12-26T04:22:03.563Z,10.09
2022-12-26T04:24:30.569Z,10.07
2022-12-26T04:26:57.888Z,10.11
2022-12-26T04:29:18.207Z,10.07
2022-12-26T04:31:46.329Z,10.01
2022-12-26T04:34:11.088Z,10.01
2022-12-26T04:36:36.881Z,10.14
2022-12-26T04:39:01.813Z,10.14
2022-12-26T04:41:23.816Z,10.25
2022-12-26T04:43:51.351Z,10.26
2022-12-26T04:45:55.925Z,10.28
2022-12-26T04:48:16.038Z,10.29
2022-12-26T04:50:18.865Z,10.31
2022-12-26T04:52:21.511Z,10.39
2022-12-26T04:54:24.214Z,10.39
2022-12-26T04:56:26.806Z,10.38
2022-12-26T04:58:30.790Z,10.43
2022-12-26T05:00:33.441Z,10.43
2022-12-26T05:02:53.814Z,10.46
2022-12-26T05:05:28.428Z,10.51
2022-12-26T05:08:05.532Z,10.49
2022-12-26T05:10:14.716Z,10.54
2022-12-26T05:12:17.414Z,10.47
2022-12-26T05:14:21.431Z,10.43
2022-12-26T05:16:42.636Z,10.48
2022-12-26T05:19:03.015Z,10.43
2022-12-26T05:21:23.426Z,10.48
2022-12-26T05:23:46.172Z,10.47
2022-12-26T05:26:07.488Z,10.48
2022-12-26T05:28:29.295Z,10.47
2022-12-26T05:30:33.295Z,10.44
2022-12-26T05:32:53.756Z,10.42
2022-12-26T05:34:56.420Z,10.52
2022-12-26T05:37:00.424Z,10.49
2022-12-26T05:39:03.212Z,10.49
2022-12-26T05:41:06.217Z,10.48
2022-12-26T05:43:08.828Z,10.43
2022-12-26T05:45:11.854Z,10.42
2022-12-26T05:47:15.770Z,10.43
2022-12-26T05:49:18.380Z,10.41
2022-12-26T05:51:20.985Z,10.36
2022-12-26T05:53:23.580Z,10.36
2022-12-26T05:55:26.889Z,10.40
2022-12-26T05:57:29.591Z,10.41
2022-12-26T05:59:32.175Z,10.43
2022-12-26T06:01:34.937Z,10.40
2022-12-26T06:03:39.645Z,10.43
2022-12-26T06:05:42.377Z,10.57
2022-12-26T06:07:45.006Z,10.60
2022-12-26T06:09:47.633Z,10.55
2022-12-26T06:11:50.691Z,10.54
2022-12-26T06:13:53.699Z,10.58
2022-12-26T06:15:56.397Z,10.56
2022-12-26T06:17:59.064Z,10.63
2022-12-26T06:20:03.815Z,10.56
2022-12-26T06:22:06.547Z,10.57
2022-12-26T06:24:09.355Z,10.62
2022-12-26T06:26:12.849Z,10.54
2022-12-26T06:28:15.550Z,10.57
2022-12-26T06:30:18.305Z,10.59
2022-12-26T06:32:21.015Z,10.63
2022-12-26T06:34:23.736Z,10.61
2022-12-26T06:36:29.423Z,10.59
2022-12-26T06:38:32.083Z,10.65
2022-12-26T06:40:34.700Z,10.77
2022-12-26T06:42:37.375Z,10.77
2022-12-26T06:44:40.004Z,10.80
2022-12-26T06:46:42.606Z,10.76
2022-12-26T06:48:45.582Z,10.73
2022-12-26T06:50:48.276Z,10.80
2022-12-26T06:52:52.288Z,10.80
2022-12-26T06:54:54.904Z,10.84
2022-12-26T06:56:57.553Z,10.77
2022-12-26T06:59:01.920Z,10.77
2022-12-26T07:01:06.166Z,10.75
2022-12-26T07:03:08.959Z,10.77
2022-12-26T07:05:11.659Z,10.80
2022-12-26T07:07:14.283Z,10.85
2022-12-26T07:09:20.161Z,10.85
2022-12-26T07:11:25.137Z,10.83
2022-12-26T07:13:27.763Z,10.81
2022-12-26T07:15:30.327Z,10.82
2022-12-26T07:17:32.919Z,10.89
2022-12-26T07:19:35.598Z,10.88
2022-12-26T07:21:40.998Z,10.82
2022-12-26T07:23:44.095Z,10.74
2022-12-26T07:25:49.569Z,10.75
2022-12-26T07:27:54.330Z,10.79
2022-12-26T07:29:57.039Z,10.73
2022-12-26T07:31:59.739Z,10.78
2022-12-26T07:34:02.642Z,10.73
2022-12-26T07:36:07.256Z,10.92
2022-12-26T07:38:09.926Z,10.80
2022-12-26T07:40:13.619Z,10.69
2022-12-26T07:42:17.530Z,10.88
2022-12-26T07:44:20.133Z,10.67
2022-12-26T07:46:23.083Z,10.59
2022-12-26T07:48:25.865Z,10.61
2022-12-26T07:50:29.585Z,10.62
2022-12-26T07:52:32.349Z,10.64
2022-12-26T07:54:35.094Z,10.77
2022-12-26T07:56:37.952Z,10.79
2022-12-26T07:58:42.106Z,10.57
2022-12-26T08:00:44.765Z,10.55
2022-12-26T08:02:49.401Z,10.47
2022-12-26T08:04:52.283Z,10.49
2022-12-26T08:06:54.862Z,10.66
2022-12-26T08:08:57.512Z,10.46
2022-12-26T08:11:01.316Z,10.32
2022-12-26T08:13:03.966Z,10.37
2022-12-26T08:15:10.022Z,10.46
2022-12-26T08:17:12.777Z,10.28
2022-12-26T08:19:15.442Z,10.08
2022-12-26T08:21:18.267Z,9.98
2022-12-26T08:23:20.948Z,10.05
2022-12-26T08:25:23.582Z,9.74
2022-12-26T08:27:26.249Z,9.77
2022-12-26T08:29:29.084Z,9.85
2022-12-26T08:31:33.135Z,9.93
2022-12-26T08:33:36.463Z,9.63
2022-12-26T08:35:40.374Z,9.51
2022-12-26T08:37:44.150Z,9.50
2022-12-26T08:39:46.784Z,9.61
2022-12-26T08:41:49.383Z,9.65
2022-12-26T08:44:25.661Z,9.56
2022-12-26T08:46:16.051Z,9.54
2022-12-26T08:48:20.135Z,9.54
2022-12-26T08:50:22.868Z,9.57
2022-12-26T08:52:25.515Z,9.72
2022-12-26T08:54:28.173Z,9.59
2022-12-26T08:56:30.930Z,9.59
2022-12-26T08:58:35.251Z,9.62
2022-12-26T09:00:38.008Z,9.49
2022-12-26T09:02:40.722Z,9.51
2022-12-26T09:04:45.375Z,9.34
2022-12-26T09:06:48.064Z,9.45
2022-12-26T09:08:51.022Z,9.34
2022-12-26T09:10:53.635Z,9.32
2022-12-26T09:12:56.238Z,9.36
2022-12-26T09:14:59.037Z,9.37
2022-12-26T09:17:01.718Z,9.40
2022-12-26T09:19:06.254Z,9.38
2022-12-26T09:21:12.399Z,9.50
2022-12-26T09:23:15.468Z,9.48
2022-12-26T09:25:18.329Z,9.66
2022-12-26T09:27:21.343Z,9.64
2022-12-26T09:29:23.982Z,9.72
2022-12-26T09:31:29.301Z,9.66
2022-12-26T09:33:33.295Z,9.66
2022-12-26T09:35:35.987Z,9.71
2022-12-26T09:37:39.974Z,9.67
2022-12-26T09:39:42.603Z,9.73
2022-12-26T09:42:02.712Z,9.80
2022-12-26T09:44:10.899Z,9.80
2022-12-26T09:46:19.798Z,9.80
2022-12-26T09:48:29.291Z,9.73
2022-12-26T09:50:40.997Z,9.71
2022-12-26T09:52:51.480Z,9.70
2022-12-26T09:54:57.404Z,9.76
2022-12-26T09:57:04.013Z,9.68
2022-12-26T09:59:14.838Z,9.67
2022-12-26T10:01:20.377Z,9.69
2022-12-26T10:03:24.684Z,9.69
2022-12-26T10:05:45.673Z,9.61
2022-12-26T10:07:57.351Z,9.66
2022-12-26T10:10:09.074Z,9.59
2022-12-26T10:12:29.852Z,9.36
2022-12-26T10:14:42.320Z,9.40
2022-12-26T10:16:51.874Z,9.53
2022-12-26T10:19:01.593Z,9.65
2022-12-26T10:21:29.250Z,9.61
2022-12-26T10:23:34.922Z,9.54
2022-12-26T10:25:43.930Z,9.57
2022-12-26T10:27:50.866Z,9.77
2022-12-26T10:29:58.439Z,9.80
2022-12-26T10:32:04.250Z,9.75
2022-12-26T10:34:11.951Z,9.65
2022-12-26T10:36:22.204Z,9.70
2022-12-26T10:38:32.208Z,9.63
2022-12-26T10:40:40.411Z,9.49
2022-12-26T10:42:45.459Z,9.52
2022-12-26T10:44:48.144Z,9.49
2022-12-26T10:47:23.361Z,9.48
2022-12-26T10:49:27.933Z,9.52
2022-12-26T10:51:31.253Z,9.47
2022-12-26T10:53:44.002Z,9.42
2022-12-26T10:55:48.056Z,9.43
2022-12-26T10:57:54.067Z,9.42
2022-12-26T10:59:57.329Z,9.38
2022-12-26T11:02:13.929Z,9.40
2022-12-26T11:04:31.440Z,9.51
2022-12-26T11:06:43.867Z,9.44
2022-12-26T11:08:50.174Z,9.45
2022-12-26T11:11:05.879Z,9.58
2022-12-26T11:13:19.184Z,9.53
2022-12-26T11:15:27.554Z,9.57
2022-12-26T11:17:32.452Z,9.52
2022-12-26T11:19:37.451Z,9.72
2022-12-26T11:21:40.146Z,9.62
2022-12-26T11:23:45.499Z,9.52
2022-12-26T11:25:54.756Z,9.60
2022-12-26T11:28:00.382Z,9.63
2022-12-26T11:30:20.337Z,9.55
2022-12-26T11:32:31.208Z,9.61
2022-12-26T11:34:36.356Z,9.57
2022-12-26T11:36:46.212Z,9.58
2022-12-26T11:38:54.065Z,9.59
2022-12-26T11:41:10.711Z,9.60
2022-12-26T11:43:18.647Z,9.62
2022-12-26T11:45:29.360Z,9.58
2022-12-26T11:47:34.376Z,9.63
2022-12-26T11:49:42.139Z,9.56
2022-12-26T11:51:50.635Z,9.63
2022-12-26T11:54:17.302Z,9.58
2022-12-26T11:56:27.744Z,9.55
2022-12-26T11:58:33.511Z,9.53
2022-12-26T12:00:39.109Z,9.52
2022-12-26T12:02:42.905Z,9.59
2022-12-26T12:04:46.889Z,9.63
2022-12-26T12:07:00.871Z,9.67
2022-12-26T12:09:12.923Z,9.65
2022-12-26T12:11:26.486Z,9.67
2022-12-26T12:13:46.675Z,9.72
2022-12-26T12:15:58.154Z,9.80
2022-12-26T12:18:08.116Z,9.74
2022-12-26T12:20:30.392Z,9.75
2022-12-26T12:22:45.982Z,9.75
2022-12-26T12:25:22.393Z,9.74
2022-12-26T12:27:29.925Z,9.71
2022-12-26T12:29:49.022Z,9.77
2022-12-26T12:32:08.472Z,9.75
2022-12-26T12:34:24.027Z,9.81
2022-12-26T12:36:33.787Z,9.79
2022-12-26T12:38:54.724Z,9.83
2022-12-26T12:41:23.459Z,9.81
2022-12-26T12:43:32.534Z,9.77
2022-12-26T12:45:41.658Z,9.75
2022-12-26T12:47:53.813Z,9.78
2022-12-26T12:50:06.675Z,9.77
2022-12-26T12:52:20.819Z,9.85
2022-12-26T12:54:48.729Z,9.76
2022-12-26T12:56:59.209Z,9.81
2022-12-26T12:59:09.919Z,9.81
2022-12-26T13:01:19.431Z,9.83
2022-12-26T13:03:31.729Z,9.73
2022-12-26T13:05:45.379Z,9.81
2022-12-26T13:07:52.651Z,9.76
2022-12-26T13:09:59.492Z,9.74
2022-12-26T13:12:04.916Z,9.72
2022-12-26T13:14:14.269Z,9.73
2022-12-26T13:16:22.434Z,9.81
2022-12-26T13:18:31.043Z,9.68
2022-12-26T13:20:41.309Z,9.83
2022-12-26T13:23:05.264Z,9.63
2022-12-26T13:25:08.752Z,9.68
2022-12-26T13:27:17.273Z,9.71
2022-12-26T13:29:29.782Z,9.60
2022-12-26T13:31:38.965Z,9.60
2022-12-26T13:33:43.400Z,9.56
2022-12-26T13:35:57.324Z,9.57
2022-12-26T13:37:59.932Z,9.62
2022-12-26T13:40:04.509Z,9.52
2022-12-26T13:42:50.232Z,9.56
2022-12-26T13:44:53.887Z,9.60
2022-12-26T13:46:59.820Z,9.54
2022-12-26T13:49:02.836Z,9.51
2022-12-26T13:51:06.697Z,9.62
2022-12-26T13:53:29.840Z,9.57
2022-12-26T13:55:43.858Z,9.66
2022-12-26T13:57:47.424Z,9.57
2022-12-26T14:00:04.073Z,9.65
2022-12-26T14:03:16.729Z,9.63
2022-12-26T14:05:19.736Z,9.68
2022-12-26T14:07:31.172Z,9.67
2022-12-26T14:09:51.019Z,9.67
2022-12-26T14:12:08.406Z,9.59
2022-12-26T14:14:24.064Z,9.64
2022-12-26T14:16:35.018Z,9.64
2022-12-26T14:18:49.059Z,9.67
2022-12-26T14:20:58.621Z,9.63
2022-12-26T14:23:18.767Z,9.62
2022-12-26T14:25:26.483Z,9.67
2022-12-26T14:27:38.707Z,9.66
2022-12-26T14:29:49.592Z,9.67
2022-12-26T14:32:13.760Z,9.63
2022-12-26T14:34:28.766Z,9.61
2022-12-26T14:36:41.595Z,9.63
2022-12-26T14:38:51.276Z,9.57
2022-12-26T14:41:06.692Z,9.64
2022-12-26T14:43:26.286Z,9.52
2022-12-26T14:45:44.734Z,9.58
2022-12-26T14:47:49.725Z,9.62
2022-12-26T14:49:54.250Z,9.55
2022-12-26T14:52:37.554Z,9.56
2022-12-26T14:54:50.820Z,9.57
2022-12-26T14:56:54.701Z,9.58
2022-12-26T14:59:25.902Z,9.57
2022-12-26T15:01:49.307Z,9.55
2022-12-26T15:03:59.881Z,9.56
2022-12-26T15:06:43.015Z,9.50
2022-12-26T15:09:04.385Z,9.53
2022-12-26T15:11:24.628Z,9.50
2022-12-26T15:13:43.971Z,9.45
2022-12-26T15:16:03.676Z,9.56
2022-12-26T15:18:32.865Z,9.51
2022-12-26T15:21:02.439Z,9.45
2022-12-26T15:23:44.150Z,9.59
2022-12-26T15:26:06.420Z,9.42
2022-12-26T15:28:53.030Z,9.52
2022-12-26T15:31:15.916Z,9.40
2022-12-26T15:33:27.011Z,9.45
2022-12-26T15:35:35.584Z,9.47
2022-12-26T15:38:00.622Z,9.39
2022-12-26T15:40:14.881Z,9.38
2022-12-26T15:42:33.969Z,9.39
2022-12-26T15:44:46.612Z,9.40
2022-12-26T15:46:53.485Z,9.33
2022-12-26T15:49:23.666Z,9.34
2022-12-26T15:51:38.145Z,9.45
2022-12-26T15:53:56.831Z,9.39
2022-12-26T15:56:22.379Z,9.46
2022-12-26T15:58:43.253Z,9.47
2022-12-26T16:00:51.101Z,9.47
2022-12-26T16:03:14.587Z,9.34
2022-12-26T16:05:32.370Z,9.34
2022-12-26T16:07:40.726Z,9.38
2022-12-26T16:09:45.531Z,9.38
2022-12-26T16:11:55.167Z,9.35
2022-12-26T16:14:00.998Z,9.33
2022-12-26T16:16:04.045Z,9.21
2022-12-26T16:18:16.900Z,9.18
2022-12-26T16:20:42.311Z,9.19
2022-12-26T16:22:44.803Z,9.16
2022-12-26T16:24:51.279Z,9.11
2022-12-26T16:26:55.903Z,9.04
2022-12-26T16:29:01.337Z,9.14
2022-12-26T16:31:05.732Z,9.07
2022-12-26T16:33:08.506Z,9.02
2022-12-26T16:35:20.185Z,9.04
2022-12-26T16:37:25.309Z,9.04
2022-12-26T16:39:27.939Z,9.01
2022-12-26T16:41:32.866Z,9.00
2022-12-26T16:43:36.998Z,9.07
2022-12-26T16:45:39.989Z,9.08
2022-12-26T16:47:44.287Z,9.11
2022-12-26T16:49:47.424Z,9.08
2022-12-26T16:51:52.515Z,9.06
2022-12-26T16:53:55.144Z,9.09
2022-12-26T16:56:00.844Z,9.03
2022-12-26T16:58:12.161Z,8.95
2022-12-26T17:00:19.972Z,8.94
2022-12-26T17:02:25.954Z,8.92
2022-12-26T17:04:30.796Z,8.83
2022-12-26T17:06:36.352Z,8.78
2022-12-26T17:08:43.458Z,8.79
2022-12-26T17:10:49.864Z,8.87
2022-12-26T17:12:53.571Z,8.83
2022-12-26T17:14:59.691Z,8.75
2022-12-26T17:17:06.413Z,8.74
2022-12-26T17:19:17.945Z,8.74
2022-12-26T17:21:24.118Z,8.70
2022-12-26T17:23:37.545Z,8.66
2022-12-26T17:25:40.894Z,8.77
2022-12-26T17:27:45.970Z,8.75
2022-12-26T17:29:55.284Z,8.78
2022-12-26T17:31:59.005Z,8.81
2022-12-26T17:34:07.569Z,8.72
2022-12-26T17:37:19.309Z,8.71
2022-12-26T17:38:38.744Z,8.69
2022-12-26T17:40:42.784Z,8.67
2022-12-26T17:42:48.210Z,8.68
2022-12-26T17:44:50.840Z,8.70
2022-12-26T17:46:53.443Z,8.73
2022-12-26T17:48:56.110Z,8.75
2022-12-26T17:51:01.459Z,8.87
2022-12-26T17:53:06.434Z,8.77
2022-12-26T17:55:16.174Z,8.83
2022-12-26T17:57:23.913Z,8.72
2022-12-26T17:59:26.504Z,8.68
2022-12-26T18:01:29.208Z,8.72
2022-12-26T18:03:31.898Z,8.80
2022-12-26T18:05:35.343Z,8.85
2022-12-26T18:07:40.036Z,8.50
2022-12-26T18:09:43.878Z,8.65
2022-12-26T18:11:46.514Z,8.69
2022-12-26T18:13:49.145Z,8.76
2022-12-26T18:15:52.652Z,8.77
2022-12-26T18:17:56.263Z,8.64
2022-12-26T18:20:00.477Z,8.70
2022-12-26T18:22:03.524Z,8.71
2022-12-26T18:24:08.532Z,8.60
2022-12-26T18:26:18.578Z,8.59
2022-12-26T18:28:21.164Z,8.51
2022-12-26T18:30:25.663Z,8.46
2022-12-26T18:32:29.851Z,8.43
2022-12-26T18:34:34.454Z,8.33
2022-12-26T18:36:41.107Z,8.33
2022-12-26T18:38:43.646Z,8.40
2022-12-26T18:40:50.062Z,8.37
2022-12-26T18:42:52.661Z,8.31
2022-12-26T18:44:55.464Z,8.27
2022-12-26T18:46:58.064Z,8.17
2022-12-26T18:49:00.695Z,8.05
2022-12-26T18:51:04.780Z,8.02
2022-12-26T18:53:07.358Z,7.94
2022-12-26T18:55:10.745Z,7.88
2022-12-26T18:57:18.512Z,7.91
2022-12-26T18:59:21.086Z,7.84
2022-12-26T19:01:23.891Z,7.84
2022-12-26T19:03:26.557Z,7.79
2022-12-26T19:05:31.616Z,7.76
2022-12-26T19:07:34.277Z,7.84
2022-12-26T19:09:37.243Z,7.76
2022-12-26T19:11:41.139Z,7.77
2022-12-26T19:13:45.689Z,7.76
2022-12-26T19:15:49.317Z,7.80
2022-12-26T19:17:51.908Z,7.81
2022-12-26T19:19:54.550Z,7.73
2022-12-26T19:21:57.440Z,7.73
2022-12-26T19:24:00.123Z,7.76
2022-12-26T19:26:09.369Z,7.66
2022-12-26T19:28:11.976Z,7.75
2022-12-26T19:30:17.119Z,7.70
2022-12-26T19:32:20.176Z,7.79
2022-12-26T19:34:23.276Z,7.79
2022-12-26T19:36:25.967Z,7.68
2022-12-26T19:38:28.625Z,7.68
2022-12-26T19:40:31.247Z,7.77
2022-12-26T19:42:37.226Z,7.71
2022-12-26T19:44:39.830Z,7.81
2022-12-26T19:46:43.847Z,7.74
2022-12-26T19:48:46.882Z,7.84
2022-12-26T19:50:49.486Z,7.80
2022-12-26T19:52:52.096Z,7.81
2022-12-26T19:54:54.685Z,7.80
2022-12-26T19:56:57.320Z,7.75
2022-12-26T19:59:00.503Z,7.76
2022-12-26T20:01:07.840Z,7.81
2022-12-26T20:03:12.034Z,7.91
2022-12-26T20:05:14.773Z,7.80
2022-12-26T20:07:17.368Z,7.77
2022-12-26T20:09:20.113Z,7.62
2022-12-26T20:11:25.022Z,7.72
2022-12-26T20:13:27.628Z,7.74
2022-12-26T20:15:30.698Z,7.73
2022-12-26T20:17:33.339Z,7.66
2022-12-26T20:19:37.900Z,7.69
2022-12-26T20:21:40.698Z,7.66
2022-12-26T20:23:43.771Z,7.62
2022-12-26T20:25:46.468Z,7.70
2022-12-26T20:27:49.121Z,7.62
2022-12-26T20:29:51.829Z,7.52
2022-12-26T20:31:55.323Z,7.50
2022-12-26T20:33:58.250Z,7.47
2022-12-26T20:36:07.826Z,7.51
2022-12-26T20:38:10.471Z,7.45
2022-12-26T20:40:13.277Z,7.46
2022-12-26T20:42:17.002Z,7.62
2022-12-26T20:44:19.858Z,7.72
2022-12-26T20:46:25.465Z,7.58
2022-12-26T20:48:28.203Z,7.65
2022-12-26T20:50:30.862Z,7.55
2022-12-26T20:52:34.941Z,7.43
2022-12-26T20:54:37.608Z,7.57
2022-12-26T20:56:40.647Z,7.59
2022-12-26T20:58:43.475Z,7.57
2022-12-26T21:00:47.258Z,7.60
2022-12-26T21:02:50.100Z,7.49
2022-12-26T21:04:53.751Z,7.42
2022-12-26T21:06:56.356Z,7.48
2022-12-26T21:09:00.456Z,7.45
2022-12-26T21:11:07.779Z,7.33
2022-12-26T21:13:10.412Z,7.42
2022-12-26T21:15:13.036Z,7.46
2022-12-26T21:17:18.715Z,7.42
2022-12-26T21:19:22.764Z,7.34
2022-12-26T21:21:27.195Z,7.32
2022-12-26T21:23:29.872Z,7.53
2022-12-26T21:25:34.510Z,7.31
2022-12-26T21:27:40.332Z,7.16
2022-12-26T21:29:45.449Z,7.26
2022-12-26T21:31:49.246Z,7.35
2022-12-26T21:33:52.134Z,7.32
2022-12-26T21:35:54.878Z,7.28
2022-12-26T21:37:56.523Z,7.19
2022-12-26T21:39:59.191Z,7.34
2022-12-26T21:42:04.652Z,7.38
2022-12-26T21:44:07.266Z,7.41
2022-12-26T21:46:12.455Z,7.24
2022-12-26T21:48:15.829Z,7.30
2022-12-26T21:50:18.685Z,7.31
2022-12-26T21:52:21.335Z,7.17
2022-12-26T21:54:48.342Z,7.18
2022-12-26T21:56:51.812Z,7.18
2022-12-26T21:59:13.402Z,7.06
2022-12-26T22:01:18.013Z,6.97
2022-12-26T22:03:38.391Z,6.83
2022-12-26T22:05:42.675Z,6.70
2022-12-26T22:07:45.542Z,6.70
2022-12-26T22:09:48.105Z,6.69
2022-12-26T22:12:08.529Z,6.63
2022-12-26T22:14:12.969Z,6.57
2022-12-26T22:16:16.153Z,6.64
2022-12-26T22:18:18.905Z,6.58
2022-12-26T22:20:21.553Z,6.60
2022-12-26T22:22:24.228Z,6.61
2022-12-26T22:24:26.880Z,6.53
2022-12-26T22:26:30.704Z,6.37
2022-12-26T22:28:33.673Z,6.36
2022-12-26T22:30:37.694Z,6.36
2022-12-26T22:32:40.334Z,6.30
2022-12-26T22:34:43.380Z,6.31
2022-12-26T22:36:46.008Z,6.33
2022-12-26T22:38:48.686Z,6.36
2022-12-26T22:40:55.866Z,6.30
2022-12-26T22:42:58.572Z,6.19
2022-12-26T22:45:01.231Z,6.16
2022-12-26T22:47:05.244Z,6.23
2022-12-26T22:49:07.904Z,6.23
2022-12-26T22:51:17.108Z,6.34
2022-12-26T22:53:19.883Z,6.33
2022-12-26T22:55:22.480Z,6.47
2022-12-26T22:57:25.177Z,6.34
2022-12-26T23:00:06.575Z,6.30
2022-12-26T23:01:50.423Z,6.33
2022-12-26T23:03:54.435Z,6.27
2022-12-26T23:05:57.729Z,6.28
2022-12-26T23:08:00.834Z,6.17
2022-12-26T23:10:04.581Z,6.13
2022-12-26T23:12:25.980Z,6.03
2022-12-26T23:14:28.789Z,5.99
2022-12-26T23:16:35.320Z,6.03
2022-12-26T23:19:01.924Z,6.07
2022-12-26T23:21:27.497Z,5.93
2022-12-26T23:23:30.609Z,5.84
2022-12-26T23:25:33.236Z,5.82
2022-12-26T23:27:53.529Z,5.90
2022-12-26T23:30:14.050Z,5.67
2022-12-26T23:32:16.669Z,5.69
2022-12-26T23:34:19.583Z,5.61
2022-12-26T23:36:23.644Z,5.67
2022-12-26T23:38:26.400Z,5.71
2022-12-26T23:40:29.067Z,5.62
2022-12-26T23:42:31.946Z,5.68
2022-12-26T23:44:34.646Z,5.61
2022-12-26T23:46:37.817Z,5.68
2022-12-26T23:48:40.719Z,5.77
2022-12-26T23:50:43.565Z,5.70
2022-12-26T23:52:47.826Z,5.61
2022-12-26T23:54:50.496Z,5.52
2022-12-26T23:56:53.175Z,5.60
2022-12-26T23:58:56.017Z,5.47
